createdAt,value
2019-02-21T00:00:35.660Z,-0.3
2019-02-21T00:01:42.862Z,-0.3
2019-02-21T00:02:49.778Z,-0.3
2019-02-21T00:03:56.972Z,-0.3
2019-02-21T00:05:04.172Z,-0.2
2019-02-21T00:06:11.369Z,-0.3
2019-02-21T00:07:18.559Z,-0.2
2019-02-21T00:08:25.473Z,-0.2
2019-02-21T00:09:32.667Z,-0.2
2019-02-21T00:10:39.860Z,-0.1
2019-02-21T00:11:47.053Z,-0.2
2019-02-21T00:12:54.243Z,-0.2
2019-02-21T00:14:01.442Z,-0.2
2019-02-21T00:15:08.635Z,-0.2
2019-02-21T00:16:15.825Z,-0.2
2019-02-21T00:17:23.017Z,-0.2
2019-02-21T00:18:30.212Z,-0.1
2019-02-21T00:19:37.403Z,-0.1
2019-02-21T00:20:44.596Z,-0.1
2019-02-21T00:21:51.795Z,-0.1
2019-02-21T00:22:58.986Z,-0.1
2019-02-21T00:24:06.184Z,0
2019-02-21T00:25:13.374Z,0
2019-02-21T00:26:20.308Z,0
2019-02-21T00:27:27.490Z,0
2019-02-21T00:28:34.684Z,0
2019-02-21T00:29:41.880Z,0
2019-02-21T00:30:48.801Z,0.1
2019-02-21T00:31:55.712Z,0.1
2019-02-21T00:33:02.909Z,0.1
2019-02-21T00:34:10.096Z,0.1
2019-02-21T00:35:17.329Z,0
2019-02-21T00:36:24.518Z,0
2019-02-21T00:37:31.719Z,0.1
2019-02-21T00:38:38.906Z,0.1
2019-02-21T00:39:45.827Z,0.1
2019-02-21T00:40:53.019Z,0.1
2019-02-21T00:42:00.229Z,0.1
2019-02-21T00:43:07.417Z,0.2
2019-02-21T00:44:14.338Z,0.2
2019-02-21T00:45:21.533Z,0.2
2019-02-21T00:46:28.727Z,0.2
2019-02-21T00:47:35.920Z,0.3
2019-02-21T00:48:43.165Z,0.2
2019-02-21T00:49:50.358Z,0.2
2019-02-21T00:50:57.558Z,0.3
2019-02-21T00:52:04.479Z,0.3
2019-02-21T00:53:11.667Z,0.3
2019-02-21T00:54:18.857Z,0.3
2019-02-21T00:55:28.388Z,0.3
2019-02-21T00:56:35.574Z,0.3
2019-02-21T00:57:42.769Z,0.3
2019-02-21T00:58:49.958Z,0.3
2019-02-21T00:59:56.598Z,0.3
2019-02-21T01:01:03.790Z,0.3
2019-02-21T01:02:11.057Z,0.3
2019-02-21T01:03:18.236Z,0.3
2019-02-21T01:04:25.448Z,0.2
2019-02-21T01:05:32.715Z,0.2
2019-02-21T01:06:39.907Z,0.3
2019-02-21T01:07:47.099Z,0.3
2019-02-21T01:08:54.289Z,0.3
2019-02-21T01:10:01.483Z,0.3
2019-02-21T01:11:08.683Z,0.3
2019-02-21T01:12:15.875Z,0.3
2019-02-21T01:13:23.101Z,0.4
2019-02-21T01:14:30.025Z,0.4
2019-02-21T01:15:37.287Z,0.4
2019-02-21T01:16:44.485Z,0.4
2019-02-21T01:17:51.682Z,0.4
2019-02-21T01:18:58.959Z,0.4
2019-02-21T01:20:06.144Z,0.4
2019-02-21T01:21:13.395Z,0.4
2019-02-21T01:22:20.575Z,0.4
2019-02-21T01:23:27.762Z,0.4
2019-02-21T01:24:34.952Z,0.4
2019-02-21T01:25:41.904Z,0.4
2019-02-21T01:26:49.099Z,0.5
2019-02-21T01:27:56.300Z,0.4
2019-02-21T01:29:03.493Z,0.4
2019-02-21T01:30:10.686Z,0.4
2019-02-21T01:31:17.934Z,0.4
2019-02-21T01:32:24.863Z,0.4
2019-02-21T01:33:32.057Z,0.4
2019-02-21T01:34:39.247Z,0.4
2019-02-21T01:35:46.506Z,0.4
2019-02-21T01:36:53.701Z,0.3
2019-02-21T01:38:00.895Z,0.4
2019-02-21T01:39:08.098Z,0.4
2019-02-21T01:40:15.287Z,0.4
2019-02-21T01:41:22.478Z,0.4
2019-02-21T01:42:29.672Z,0.4
2019-02-21T01:43:36.865Z,0.4
2019-02-21T01:44:44.060Z,0.4
2019-02-21T01:45:51.297Z,0.4
2019-02-21T01:46:58.489Z,0.3
2019-02-21T01:48:05.683Z,0.3
2019-02-21T01:49:12.881Z,0.3
2019-02-21T01:50:20.073Z,0.3
2019-02-21T01:51:27.012Z,0.4
2019-02-21T01:52:34.201Z,0.4
2019-02-21T01:53:40.845Z,0.4
2019-02-21T01:54:48.036Z,0.5
2019-02-21T01:55:55.233Z,0.4
2019-02-21T01:57:02.420Z,0.4
2019-02-21T01:58:09.607Z,0.4
2019-02-21T01:59:16.799Z,0.4
2019-02-21T02:00:23.988Z,0.4
2019-02-21T02:01:30.912Z,0.4
2019-02-21T02:02:37.833Z,0.4
2019-02-21T02:03:44.752Z,0.4
2019-02-21T02:04:51.675Z,0.4
2019-02-21T02:05:58.869Z,0.4
2019-02-21T02:07:06.068Z,0.4
2019-02-21T02:08:12.988Z,0.3
2019-02-21T02:09:20.173Z,0.3
2019-02-21T02:10:27.373Z,0.3
2019-02-21T02:11:34.293Z,0.3
2019-02-21T02:12:41.486Z,0.3
2019-02-21T02:13:48.678Z,0.3
2019-02-21T02:14:55.871Z,0.3
2019-02-21T02:16:02.797Z,0.2
2019-02-21T02:17:09.711Z,0.3
2019-02-21T02:18:16.361Z,0.3
2019-02-21T02:19:23.008Z,0.3
2019-02-21T02:20:30.220Z,0.2
2019-02-21T02:21:37.461Z,0.2
2019-02-21T02:22:44.653Z,0.2
2019-02-21T02:23:51.570Z,0.2
2019-02-21T02:24:58.764Z,0.2
2019-02-21T02:26:05.962Z,0.2
2019-02-21T02:27:13.161Z,0.2
2019-02-21T02:28:20.079Z,0.2
2019-02-21T02:29:27.272Z,0.3
2019-02-21T02:30:34.469Z,0.2
2019-02-21T02:31:41.677Z,0.2
2019-02-21T02:32:48.859Z,0.3
2019-02-21T02:33:56.046Z,0.3
2019-02-21T02:35:03.235Z,0.2
2019-02-21T02:36:10.170Z,0.2
2019-02-21T02:37:17.357Z,0.2
2019-02-21T02:38:24.547Z,0.2
2019-02-21T02:39:31.741Z,0.2
2019-02-21T02:40:38.931Z,0.2
2019-02-21T02:41:46.122Z,0.2
2019-02-21T02:42:53.101Z,0.1
2019-02-21T02:44:00.277Z,0.1
2019-02-21T02:45:07.471Z,0.2
2019-02-21T02:46:14.663Z,0.2
2019-02-21T02:47:21.858Z,0.2
2019-02-21T02:48:29.090Z,0.1
2019-02-21T02:49:36.278Z,0.1
2019-02-21T02:50:43.476Z,0
2019-02-21T02:51:50.667Z,0
2019-02-21T02:52:57.593Z,0
2019-02-21T02:54:04.791Z,0
2019-02-21T02:55:12.000Z,0
2019-02-21T02:56:18.920Z,0
2019-02-21T02:57:25.844Z,0
2019-02-21T02:58:33.103Z,0
2019-02-21T02:59:41.732Z,0
2019-02-21T03:00:48.921Z,0.1
2019-02-21T03:01:56.113Z,0.1
2019-02-21T03:03:03.083Z,0.1
2019-02-21T03:04:10.004Z,0
2019-02-21T03:05:17.112Z,0
2019-02-21T03:06:24.336Z,0
2019-02-21T03:07:31.541Z,0
2019-02-21T03:08:38.735Z,0
2019-02-21T03:09:45.926Z,0
2019-02-21T03:10:53.117Z,-0.1
2019-02-21T03:12:00.046Z,-0.1
2019-02-21T03:13:06.980Z,0
2019-02-21T03:14:14.166Z,-0.1
2019-02-21T03:15:21.082Z,-0.1
2019-02-21T03:16:28.003Z,0
2019-02-21T03:17:35.194Z,0.1
2019-02-21T03:18:42.111Z,0.1
2019-02-21T03:19:49.298Z,0
2019-02-21T03:20:56.491Z,0.1
2019-02-21T03:22:03.145Z,0.1
2019-02-21T03:23:10.344Z,0.1
2019-02-21T03:24:17.574Z,0.1
2019-02-21T03:25:24.764Z,0.1
2019-02-21T03:26:31.681Z,0
2019-02-21T03:27:38.607Z,0
2019-02-21T03:28:46.032Z,0
2019-02-21T03:29:52.934Z,0
2019-02-21T03:31:00.121Z,0
2019-02-21T03:32:07.110Z,0
2019-02-21T03:33:14.359Z,-0.1
2019-02-21T03:34:21.291Z,-0.1
2019-02-21T03:35:28.513Z,-0.1
2019-02-21T03:36:35.446Z,-0.1
2019-02-21T03:37:42.678Z,0
2019-02-21T03:38:49.878Z,0
2019-02-21T03:39:56.804Z,-0.1
2019-02-21T03:41:03.724Z,-0.1
2019-02-21T03:42:10.921Z,-0.1
2019-02-21T03:43:17.848Z,-0.1
2019-02-21T03:44:24.495Z,-0.1
2019-02-21T03:45:31.742Z,-0.1
2019-02-21T03:46:38.925Z,-0.1
2019-02-21T03:47:45.605Z,-0.1
2019-02-21T03:48:52.511Z,0
2019-02-21T03:49:59.702Z,0
2019-02-21T03:51:07.129Z,0
2019-02-21T03:52:14.319Z,0
2019-02-21T03:53:21.512Z,0
2019-02-21T03:54:28.829Z,-0.1
2019-02-21T03:55:36.011Z,-0.1
2019-02-21T03:56:42.933Z,-0.1
2019-02-21T03:57:50.126Z,-0.1
2019-02-21T03:58:57.128Z,-0.2
2019-02-21T04:00:04.327Z,-0.2
2019-02-21T04:01:11.514Z,-0.3
2019-02-21T04:02:18.711Z,-0.3
2019-02-21T04:03:25.917Z,-0.3
2019-02-21T04:04:33.112Z,-0.3
2019-02-21T04:05:40.302Z,-0.3
2019-02-21T04:06:47.218Z,-0.4
2019-02-21T04:07:54.488Z,-0.4
2019-02-21T04:09:01.389Z,-0.4
2019-02-21T04:10:08.587Z,-0.5
2019-02-21T04:11:15.775Z,-0.6
2019-02-21T04:12:22.682Z,-0.6
2019-02-21T04:13:29.893Z,-0.6
2019-02-21T04:14:37.263Z,-0.6
2019-02-21T04:15:44.274Z,-0.6
2019-02-21T04:16:51.493Z,-0.5
2019-02-21T04:17:58.457Z,-0.6
2019-02-21T04:19:05.640Z,-0.6
2019-02-21T04:20:12.594Z,-0.6
2019-02-21T04:21:19.767Z,-0.6
2019-02-21T04:22:26.957Z,-0.6
2019-02-21T04:23:33.872Z,-0.6
2019-02-21T04:24:41.071Z,-0.6
2019-02-21T04:25:48.254Z,-0.6
2019-02-21T04:26:55.446Z,-0.7
2019-02-21T04:28:02.639Z,-0.7
2019-02-21T04:29:09.831Z,-0.8
2019-02-21T04:30:17.037Z,-0.9
2019-02-21T04:31:23.957Z,-0.9
2019-02-21T04:32:30.875Z,-0.9
2019-02-21T04:33:38.067Z,-0.9
2019-02-21T04:34:44.981Z,-1
2019-02-21T04:35:52.181Z,-1
2019-02-21T04:36:59.375Z,-1
2019-02-21T04:38:06.565Z,-1
2019-02-21T04:39:13.758Z,-1
2019-02-21T04:40:20.954Z,-1
2019-02-21T04:41:27.904Z,-0.9
2019-02-21T04:42:35.097Z,-1
2019-02-21T04:43:42.289Z,-1
2019-02-21T04:44:49.487Z,-1
2019-02-21T04:45:56.672Z,-1
2019-02-21T04:47:03.879Z,-1
2019-02-21T04:48:11.071Z,-1
2019-02-21T04:49:17.986Z,-1
2019-02-21T04:50:24.904Z,-1.1
2019-02-21T04:51:32.099Z,-1.2
2019-02-21T04:52:39.292Z,-1.2
2019-02-21T04:53:46.488Z,-1.2
2019-02-21T04:54:53.759Z,-1.2
2019-02-21T04:56:00.951Z,-1.2
2019-02-21T04:57:08.140Z,-1.2
2019-02-21T04:58:15.337Z,-1.2
2019-02-21T04:59:22.529Z,-1.2
2019-02-21T05:00:29.721Z,-1.2
2019-02-21T05:01:36.990Z,-1.2
2019-02-21T05:02:47.073Z,-1.2
2019-02-21T05:03:54.281Z,-1.2
2019-02-21T05:05:01.193Z,-1.2
2019-02-21T05:06:08.114Z,-1.2
2019-02-21T05:07:15.305Z,-1.2
2019-02-21T05:08:22.231Z,-1.2
2019-02-21T05:09:29.419Z,-1.3
2019-02-21T05:10:36.671Z,-1.3
2019-02-21T05:11:43.593Z,-1.3
2019-02-21T05:12:50.783Z,-1.3
2019-02-21T05:13:57.995Z,-1.4
2019-02-21T05:15:05.184Z,-1.4
2019-02-21T05:16:12.383Z,-1.4
2019-02-21T05:17:19.581Z,-1.4
2019-02-21T05:18:26.770Z,-1.3
2019-02-21T05:19:33.685Z,-1.3
2019-02-21T05:20:40.882Z,-1.2
2019-02-21T05:21:48.066Z,-1.2
2019-02-21T05:22:55.266Z,-1.2
2019-02-21T05:24:02.449Z,-1.2
2019-02-21T05:25:09.638Z,-1.2
2019-02-21T05:26:16.826Z,-1.2
2019-02-21T05:27:24.013Z,-1.1
2019-02-21T05:28:30.665Z,-1.1
2019-02-21T05:29:37.885Z,-1.1
2019-02-21T05:30:45.073Z,-1.1
2019-02-21T05:31:52.270Z,-1.2
2019-02-21T05:32:59.460Z,-1.1
2019-02-21T05:34:06.650Z,-1.1
2019-02-21T05:35:13.570Z,-1.1
2019-02-21T05:36:20.761Z,-1
2019-02-21T05:37:27.927Z,-1
2019-02-21T05:38:35.127Z,-1
2019-02-21T05:39:42.049Z,-1
2019-02-21T05:40:49.242Z,-1
2019-02-21T05:41:56.436Z,-0.9
2019-02-21T05:43:03.629Z,-0.9
2019-02-21T05:44:10.820Z,-0.9
2019-02-21T05:45:18.010Z,-1
2019-02-21T05:46:25.005Z,-1
2019-02-21T05:47:32.194Z,-1
2019-02-21T05:48:40.849Z,-1.1
2019-02-21T05:49:47.765Z,-1.1
2019-02-21T05:50:55.029Z,-1.1
2019-02-21T05:52:02.227Z,-1.2
2019-02-21T05:53:09.425Z,-1.2
2019-02-21T05:54:16.346Z,-1.2
2019-02-21T05:55:23.266Z,-1.2
2019-02-21T05:56:30.195Z,-1.2
2019-02-21T05:57:37.383Z,-1.2
2019-02-21T05:58:44.579Z,-1.2
2019-02-21T05:59:51.771Z,-1.2
2019-02-21T06:00:59.029Z,-1.1
2019-02-21T06:02:06.216Z,-1.1
2019-02-21T06:03:13.410Z,-1.1
2019-02-21T06:04:20.603Z,-1.1
2019-02-21T06:05:27.796Z,-1.1
2019-02-21T06:06:34.977Z,-1.1
2019-02-21T06:07:42.176Z,-1.1
2019-02-21T06:08:49.104Z,-1.1
2019-02-21T06:09:56.309Z,-1.1
2019-02-21T06:11:03.497Z,-1.1
2019-02-21T06:12:10.683Z,-1.1
2019-02-21T06:13:17.915Z,-1.1
2019-02-21T06:14:25.227Z,-1
2019-02-21T06:15:32.414Z,-1
2019-02-21T06:16:39.605Z,-1
2019-02-21T06:17:46.802Z,-1
2019-02-21T06:18:53.990Z,-0.9
2019-02-21T06:20:01.132Z,-0.9
2019-02-21T06:21:08.347Z,-0.9
2019-02-21T06:22:15.543Z,-1
2019-02-21T06:23:25.497Z,-1
2019-02-21T06:24:32.446Z,-0.9
2019-02-21T06:25:55.335Z,-0.9
2019-02-21T06:27:06.062Z,-0.8
2019-02-21T06:28:13.263Z,-0.8
2019-02-21T06:29:23.000Z,-0.8
2019-02-21T06:30:29.934Z,-0.8
2019-02-21T06:31:37.131Z,-0.8
2019-02-21T06:32:44.323Z,-0.8
2019-02-21T06:33:51.509Z,-0.8
2019-02-21T06:34:58.714Z,-0.8
2019-02-21T06:36:09.007Z,-0.8
2019-02-21T06:37:16.215Z,-0.7
2019-02-21T06:38:23.133Z,-0.7
2019-02-21T06:39:30.327Z,-0.7
2019-02-21T06:40:37.512Z,-0.7
2019-02-21T06:41:44.702Z,-0.7
2019-02-21T06:42:51.894Z,-0.7
2019-02-21T06:43:59.100Z,-0.7
2019-02-21T06:45:06.022Z,-0.7
2019-02-21T06:46:14.306Z,-0.7
2019-02-21T06:47:21.534Z,-0.7
2019-02-21T06:48:28.728Z,-0.7
2019-02-21T06:49:38.981Z,-0.7
2019-02-21T06:50:48.249Z,-0.7
2019-02-21T06:51:55.444Z,-0.7
2019-02-21T06:53:02.636Z,-0.7
2019-02-21T06:54:09.828Z,-0.7
2019-02-21T06:55:17.022Z,-0.7
2019-02-21T06:56:23.950Z,-0.8
2019-02-21T06:57:45.783Z,-0.8
2019-02-21T06:58:52.702Z,-0.7
2019-02-21T06:59:59.350Z,-0.7
2019-02-21T07:01:06.620Z,-0.7
2019-02-21T07:02:14.224Z,-0.7
2019-02-21T07:03:21.421Z,-0.6
2019-02-21T07:04:28.334Z,-0.6
2019-02-21T07:05:37.530Z,-0.5
2019-02-21T07:06:44.720Z,-0.5
2019-02-21T07:07:51.357Z,-0.5
2019-02-21T07:09:00.437Z,-0.4
2019-02-21T07:10:07.353Z,-0.4
2019-02-21T07:11:14.551Z,-0.3
2019-02-21T07:12:21.748Z,-0.2
2019-02-21T07:13:28.953Z,-0.1
2019-02-21T07:14:36.136Z,-0.1
2019-02-21T07:15:43.333Z,0
2019-02-21T07:16:50.521Z,0.1
2019-02-21T07:17:57.710Z,0.1
2019-02-21T07:19:04.903Z,0.1
2019-02-21T07:20:13.553Z,0.2
2019-02-21T07:21:20.744Z,0.2
2019-02-21T07:22:27.937Z,0.3
2019-02-21T07:23:44.062Z,0.4
2019-02-21T07:24:53.786Z,0.4
2019-02-21T07:26:01.289Z,0.5
2019-02-21T07:27:08.485Z,0.6
2019-02-21T07:28:16.465Z,0.7
2019-02-21T07:29:23.386Z,0.8
2019-02-21T07:30:30.030Z,0.8
2019-02-21T07:31:37.221Z,0.8
2019-02-21T07:32:44.411Z,0.7
2019-02-21T07:33:51.605Z,0.7
2019-02-21T07:34:58.798Z,0.7
2019-02-21T07:36:05.986Z,0.6
2019-02-21T07:37:19.259Z,0.6
2019-02-21T07:38:26.474Z,0.6
2019-02-21T07:39:36.776Z,0.6
2019-02-21T07:40:43.696Z,0.6
2019-02-21T07:41:50.894Z,0.6
2019-02-21T07:42:59.347Z,0.7
2019-02-21T07:44:12.894Z,0.7
2019-02-21T07:45:20.117Z,0.8
2019-02-21T07:46:27.034Z,0.8
2019-02-21T07:47:34.229Z,0.9
2019-02-21T07:48:41.420Z,0.9
2019-02-21T07:49:48.607Z,0.9
2019-02-21T07:50:55.256Z,1
2019-02-21T07:52:02.450Z,1
2019-02-21T07:53:12.203Z,1
2019-02-21T07:54:19.398Z,1.1
2019-02-21T07:55:26.318Z,1.2
2019-02-21T07:56:42.563Z,1.3
2019-02-21T07:57:49.744Z,1.3
2019-02-21T07:58:58.204Z,1.4
2019-02-21T08:00:05.396Z,1.5
2019-02-21T08:01:12.588Z,1.6
2019-02-21T08:02:20.987Z,1.6
2019-02-21T08:03:44.032Z,1.6
2019-02-21T08:04:55.317Z,1.7
2019-02-21T08:06:02.514Z,1.7
2019-02-21T08:07:09.438Z,1.8
2019-02-21T08:08:16.637Z,1.9
2019-02-21T08:09:23.559Z,1.9
2019-02-21T08:10:34.285Z,1.9
2019-02-21T08:11:40.922Z,1.9
2019-02-21T08:12:48.129Z,2
2019-02-21T08:13:55.320Z,2
2019-02-21T08:15:02.522Z,2
2019-02-21T08:16:09.505Z,2
2019-02-21T08:17:19.364Z,2.1
2019-02-21T08:18:26.562Z,2.3
2019-02-21T08:19:33.482Z,2.5
2019-02-21T08:20:41.718Z,2.6
2019-02-21T08:21:48.957Z,2.8
2019-02-21T08:22:56.667Z,3
2019-02-21T08:24:03.943Z,3
2019-02-21T08:25:11.143Z,3.1
2019-02-21T08:26:20.348Z,3.2
2019-02-21T08:27:27.551Z,3.2
2019-02-21T08:28:34.803Z,3.3
2019-02-21T08:29:41.994Z,3.5
2019-02-21T08:30:49.185Z,3.6
2019-02-21T08:31:56.390Z,3.8
2019-02-21T08:33:03.591Z,3.8
2019-02-21T08:34:10.786Z,3.9
2019-02-21T08:35:17.711Z,4
2019-02-21T08:36:24.901Z,4.1
2019-02-21T08:37:32.092Z,4.2
2019-02-21T08:38:39.297Z,4.3
2019-02-21T08:39:46.217Z,4.4
2019-02-21T08:40:53.972Z,4.5
2019-02-21T08:42:03.844Z,4.6
2019-02-21T08:43:11.035Z,4.7
2019-02-21T08:44:18.231Z,4.9
2019-02-21T08:45:25.147Z,5
2019-02-21T08:46:32.343Z,5
2019-02-21T08:47:39.270Z,5.1
2019-02-21T08:48:48.477Z,5.1
2019-02-21T08:49:55.680Z,5.2
2019-02-21T08:51:02.956Z,5.3
2019-02-21T08:52:12.640Z,5.5
2019-02-21T08:53:19.836Z,5.5
2019-02-21T08:54:27.033Z,5.6
2019-02-21T08:55:34.235Z,5.7
2019-02-21T08:56:41.422Z,5.8
2019-02-21T08:57:48.347Z,5.9
2019-02-21T08:58:55.541Z,6
2019-02-21T09:00:02.744Z,6
2019-02-21T09:01:09.935Z,6.1
2019-02-21T09:02:16.861Z,6.2
2019-02-21T09:03:23.782Z,6.2
2019-02-21T09:04:30.983Z,6.2
2019-02-21T09:05:38.179Z,6.2
2019-02-21T09:06:45.375Z,6.2
2019-02-21T09:07:52.576Z,6.2
2019-02-21T09:08:59.776Z,6.1
2019-02-21T09:10:06.967Z,6.1
2019-02-21T09:11:13.892Z,6
2019-02-21T09:12:21.087Z,5.9
2019-02-21T09:13:28.280Z,5.9
2019-02-21T09:14:35.482Z,5.8
2019-02-21T09:15:42.680Z,5.8
2019-02-21T09:16:52.777Z,5.8
2019-02-21T09:17:59.978Z,5.8
2019-02-21T09:19:07.175Z,5.9
2019-02-21T09:20:14.438Z,6
2019-02-21T09:21:21.368Z,6
2019-02-21T09:22:28.567Z,6
2019-02-21T09:23:35.760Z,6
2019-02-21T09:24:43.171Z,6.1
2019-02-21T09:25:50.384Z,6.2
2019-02-21T09:27:00.606Z,6.1
2019-02-21T09:28:07.810Z,6.1
2019-02-21T09:29:15.016Z,6.3
2019-02-21T09:30:22.210Z,6.4
2019-02-21T09:31:29.406Z,6.5
2019-02-21T09:32:36.597Z,6.6
2019-02-21T09:33:44.163Z,6.7
2019-02-21T09:34:51.346Z,7
2019-02-21T09:35:58.542Z,7.1
2019-02-21T09:37:06.081Z,7.2
2019-02-21T09:38:13.278Z,7.3
2019-02-21T09:39:20.475Z,7.3
2019-02-21T09:40:29.205Z,7.4
2019-02-21T09:41:36.407Z,7.4
2019-02-21T09:42:43.604Z,7.6
2019-02-21T09:43:51.739Z,7.7
2019-02-21T09:44:58.668Z,7.7
2019-02-21T09:46:05.587Z,7.9
2019-02-21T09:47:12.789Z,7.9
2019-02-21T09:48:19.729Z,8
2019-02-21T09:49:26.929Z,8.1
2019-02-21T09:50:34.173Z,8.4
2019-02-21T09:51:40.831Z,8.7
2019-02-21T09:52:47.749Z,8.8
2019-02-21T09:53:54.947Z,9
2019-02-21T09:55:02.146Z,9.1
2019-02-21T09:56:09.348Z,9.1
2019-02-21T09:57:16.555Z,9
2019-02-21T09:58:23.483Z,8.9
2019-02-21T09:59:30.691Z,8.8
2019-02-21T10:00:37.891Z,8.6
2019-02-21T10:01:44.813Z,8.5
2019-02-21T10:02:56.905Z,8.4
2019-02-21T10:04:04.095Z,8.4
2019-02-21T10:05:11.296Z,8.3
2019-02-21T10:06:18.492Z,8.2
2019-02-21T10:07:25.686Z,8.2
2019-02-21T10:08:32.883Z,8.1
2019-02-21T10:09:40.085Z,8
2019-02-21T10:10:47.006Z,8
2019-02-21T10:11:54.206Z,8
2019-02-21T10:13:01.404Z,8.1
2019-02-21T10:14:08.603Z,8.2
2019-02-21T10:15:15.482Z,8.2
2019-02-21T10:16:22.714Z,8.1
2019-02-21T10:17:29.927Z,8.2
2019-02-21T10:18:37.119Z,8.2
2019-02-21T10:19:44.045Z,8.1
2019-02-21T10:20:51.251Z,8.2
2019-02-21T10:21:58.169Z,8.2
2019-02-21T10:23:05.366Z,8.2
2019-02-21T10:24:12.293Z,8
2019-02-21T10:25:19.218Z,7.9
2019-02-21T10:26:29.373Z,7.9
2019-02-21T10:27:36.566Z,7.9
2019-02-21T10:28:45.664Z,7.9
2019-02-21T10:29:52.868Z,8
2019-02-21T10:31:00.067Z,8
2019-02-21T10:32:07.275Z,8
2019-02-21T10:33:14.471Z,7.9
2019-02-21T10:34:22.454Z,8
2019-02-21T10:35:29.651Z,8.1
2019-02-21T10:36:36.851Z,8.2
2019-02-21T10:37:44.051Z,8.1
2019-02-21T10:38:51.248Z,8.1
2019-02-21T10:39:58.452Z,8.2
2019-02-21T10:41:05.378Z,8.2
2019-02-21T10:42:15.206Z,8.3
2019-02-21T10:43:22.408Z,8.2
2019-02-21T10:44:29.609Z,8.3
2019-02-21T10:45:48.345Z,8.3
2019-02-21T10:46:55.338Z,8.4
2019-02-21T10:48:02.260Z,8.5
2019-02-21T10:49:09.452Z,8.7
2019-02-21T10:50:16.665Z,8.9
2019-02-21T10:51:23.863Z,9
2019-02-21T10:52:31.066Z,8.8
2019-02-21T10:53:38.276Z,8.9
2019-02-21T10:54:45.478Z,9.2
2019-02-21T10:55:52.678Z,9.4
2019-02-21T10:56:59.611Z,9.5
2019-02-21T10:58:06.817Z,9.6
2019-02-21T10:59:14.021Z,9.7
2019-02-21T11:00:21.217Z,9.8
2019-02-21T11:01:28.417Z,9.9
2019-02-21T11:02:35.610Z,9.8
2019-02-21T11:03:42.811Z,9.8
2019-02-21T11:04:55.495Z,9.9
2019-02-21T11:06:02.695Z,9.9
2019-02-21T11:07:09.895Z,9.8
2019-02-21T11:08:17.094Z,9.8
2019-02-21T11:09:24.290Z,9.8
2019-02-21T11:10:31.492Z,9.8
2019-02-21T11:11:38.422Z,9.9
2019-02-21T11:12:45.359Z,10
2019-02-21T11:13:52.563Z,10
2019-02-21T11:14:59.222Z,10
2019-02-21T11:16:06.661Z,10.1
2019-02-21T11:17:13.919Z,10.2
2019-02-21T11:18:21.114Z,10.2
2019-02-21T11:19:28.346Z,10.2
2019-02-21T11:20:35.549Z,10.3
2019-02-21T11:21:42.475Z,10.3
2019-02-21T11:22:49.679Z,10.5
2019-02-21T11:23:56.881Z,10.6
2019-02-21T11:25:04.086Z,10.7
2019-02-21T11:26:11.293Z,10.6
2019-02-21T11:27:21.296Z,10.5
2019-02-21T11:28:28.500Z,10.3
2019-02-21T11:29:35.711Z,10.2
2019-02-21T11:30:42.917Z,10.3
2019-02-21T11:31:50.116Z,10.3
2019-02-21T11:32:57.315Z,10.3
2019-02-21T11:34:03.970Z,10.5
2019-02-21T11:35:11.175Z,10.5
2019-02-21T11:36:18.382Z,10.5
2019-02-21T11:37:25.328Z,10.3
2019-02-21T11:38:32.536Z,10.3
2019-02-21T11:39:39.737Z,10.3
2019-02-21T11:40:46.944Z,10.3
2019-02-21T11:41:53.957Z,10.4
2019-02-21T11:43:03.181Z,10.4
2019-02-21T11:44:10.383Z,10.5
2019-02-21T11:45:17.609Z,10.5
2019-02-21T11:46:24.809Z,10.6
2019-02-21T11:47:32.014Z,10.6
2019-02-21T11:48:38.945Z,10.7
2019-02-21T11:49:45.877Z,10.7
2019-02-21T11:50:53.090Z,10.8
2019-02-21T11:52:10.574Z,10.8
2019-02-21T11:53:17.796Z,10.6
2019-02-21T11:54:27.666Z,10.6
2019-02-21T11:55:34.870Z,10.6
2019-02-21T11:56:42.071Z,10.6
2019-02-21T11:57:49.277Z,10.6
2019-02-21T11:58:56.484Z,10.6
2019-02-21T12:00:03.681Z,10.6
2019-02-21T12:01:10.897Z,10.7
2019-02-21T12:02:18.296Z,10.7
2019-02-21T12:03:25.504Z,10.7
2019-02-21T12:04:32.702Z,10.6
2019-02-21T12:05:39.901Z,10.6
2019-02-21T12:06:48.272Z,10.7
2019-02-21T12:07:55.484Z,10.8
2019-02-21T12:09:02.691Z,10.8
2019-02-21T12:10:09.613Z,10.8
2019-02-21T12:11:16.585Z,10.9
2019-02-21T12:12:23.788Z,10.9
2019-02-21T12:13:30.991Z,10.9
2019-02-21T12:14:38.190Z,11
2019-02-21T12:15:45.388Z,11
2019-02-21T12:16:52.318Z,11.1
2019-02-21T12:17:59.524Z,11
2019-02-21T12:19:06.458Z,11
2019-02-21T12:20:13.386Z,11.2
2019-02-21T12:21:20.611Z,11.5
2019-02-21T12:22:27.544Z,11.7
2019-02-21T12:23:34.746Z,11.8
2019-02-21T12:24:41.674Z,11.9
2019-02-21T12:25:48.604Z,12
2019-02-21T12:26:55.537Z,12
2019-02-21T12:28:02.745Z,12.1
2019-02-21T12:29:09.956Z,12.1
2019-02-21T12:30:17.155Z,12
2019-02-21T12:31:24.357Z,11.7
2019-02-21T12:32:31.294Z,11.6
2019-02-21T12:33:38.501Z,11.4
2019-02-21T12:34:45.704Z,11.3
2019-02-21T12:35:52.635Z,11.3
2019-02-21T12:36:59.562Z,11.3
2019-02-21T12:38:06.762Z,11.5
2019-02-21T12:39:13.967Z,11.4
2019-02-21T12:40:21.170Z,11.4
2019-02-21T12:41:28.386Z,11.4
2019-02-21T12:42:35.308Z,11.5
2019-02-21T12:43:42.509Z,11.6
2019-02-21T12:44:49.708Z,11.6
2019-02-21T12:45:56.921Z,11.6
2019-02-21T12:47:04.120Z,11.6
2019-02-21T12:48:11.044Z,11.7
2019-02-21T12:49:17.981Z,11.9
2019-02-21T12:50:25.187Z,12.3
2019-02-21T12:51:32.126Z,12.5
2019-02-21T12:52:39.329Z,12.7
2019-02-21T12:53:46.533Z,12.8
2019-02-21T12:54:53.765Z,12.8
2019-02-21T12:56:00.967Z,13
2019-02-21T12:57:08.167Z,13
2019-02-21T12:58:15.369Z,12.7
2019-02-21T12:59:22.300Z,12.4
2019-02-21T13:00:29.501Z,12.3
2019-02-21T13:01:36.711Z,12.3
2019-02-21T13:02:43.915Z,12.5
2019-02-21T13:03:51.116Z,12.7
2019-02-21T13:04:58.316Z,12.3
2019-02-21T13:06:05.526Z,12.1
2019-02-21T13:07:12.727Z,12.1
2019-02-21T13:08:19.929Z,12.1
2019-02-21T13:09:27.141Z,11.9
2019-02-21T13:10:35.503Z,11.9
2019-02-21T13:11:42.703Z,11.9
2019-02-21T13:12:49.900Z,12.1
2019-02-21T13:13:57.103Z,12.3
2019-02-21T13:15:04.040Z,12.3
2019-02-21T13:16:11.242Z,12.4
2019-02-21T13:17:18.443Z,12.3
2019-02-21T13:18:25.650Z,12.3
2019-02-21T13:19:32.862Z,12
2019-02-21T13:20:39.791Z,12
2019-02-21T13:21:46.995Z,11.9
2019-02-21T13:22:54.197Z,11.9
2019-02-21T13:24:01.442Z,11.9
2019-02-21T13:25:08.646Z,11.8
2019-02-21T13:26:15.844Z,11.7
2019-02-21T13:27:23.046Z,11.6
2019-02-21T13:28:29.425Z,11.5
2019-02-21T13:29:36.356Z,11.5
2019-02-21T13:30:43.567Z,11.5
2019-02-21T13:31:50.774Z,11.3
2019-02-21T13:32:57.983Z,11.2
2019-02-21T13:34:05.193Z,11.3
2019-02-21T13:35:12.412Z,11.4
2019-02-21T13:36:19.330Z,11.5
2019-02-21T13:37:29.503Z,11.5
2019-02-21T13:38:36.706Z,11.5
2019-02-21T13:39:43.908Z,11.5
2019-02-21T13:40:51.115Z,11.5
2019-02-21T13:42:12.971Z,11.5
2019-02-21T13:43:20.178Z,11.5
2019-02-21T13:44:27.382Z,11.5
2019-02-21T13:45:34.589Z,11.5
2019-02-21T13:46:42.410Z,11.5
2019-02-21T13:47:49.349Z,11.6
2019-02-21T13:48:56.548Z,11.5
2019-02-21T13:50:03.480Z,11.4
2019-02-21T13:51:10.694Z,11.4
2019-02-21T13:52:17.899Z,11.4
2019-02-21T13:53:25.099Z,11.3
2019-02-21T13:54:32.035Z,11.3
2019-02-21T13:55:38.981Z,11.3
2019-02-21T13:56:46.187Z,11.2
2019-02-21T13:57:53.384Z,11.1
2019-02-21T13:59:00.591Z,11
2019-02-21T14:00:07.793Z,11.1
2019-02-21T14:01:15.108Z,11.1
2019-02-21T14:02:22.312Z,11.1
2019-02-21T14:03:29.246Z,11.2
2019-02-21T14:04:36.453Z,11.2
2019-02-21T14:05:43.656Z,11.2
2019-02-21T14:06:50.966Z,11.2
2019-02-21T14:07:58.164Z,11.3
2019-02-21T14:09:05.096Z,11.3
2019-02-21T14:10:12.031Z,11.2
2019-02-21T14:11:19.241Z,11.2
2019-02-21T14:12:27.171Z,11.2
2019-02-21T14:13:34.401Z,11.3
2019-02-21T14:14:43.052Z,11.3
2019-02-21T14:15:50.256Z,11.3
2019-02-21T14:16:57.456Z,11.2
2019-02-21T14:18:04.767Z,11.3
2019-02-21T14:19:11.700Z,11.2
2019-02-21T14:20:18.897Z,11.2
2019-02-21T14:21:26.096Z,11.1
2019-02-21T14:22:33.315Z,11.2
2019-02-21T14:23:40.237Z,11.2
2019-02-21T14:24:47.441Z,11.2
2019-02-21T14:25:54.644Z,11.2
2019-02-21T14:27:15.956Z,11.1
2019-02-21T14:28:22.878Z,11.1
2019-02-21T14:29:39.848Z,11.1
2019-02-21T14:30:47.081Z,11.2
2019-02-21T14:31:54.286Z,11.2
2019-02-21T14:33:01.492Z,11.2
2019-02-21T14:34:08.686Z,11.2
2019-02-21T14:35:15.624Z,11.1
2019-02-21T14:36:22.831Z,11.2
2019-02-21T14:37:30.037Z,11.2
2019-02-21T14:38:38.354Z,11.3
2019-02-21T14:39:45.293Z,11.2
2019-02-21T14:40:52.490Z,11.2
2019-02-21T14:41:59.418Z,11.2
2019-02-21T14:43:06.654Z,11.2
2019-02-21T14:44:13.861Z,11.2
2019-02-21T14:45:21.068Z,11.2
2019-02-21T14:46:28.271Z,11.3
2019-02-21T14:47:35.476Z,11.3
2019-02-21T14:48:42.674Z,11.4
2019-02-21T14:49:50.279Z,11.4
2019-02-21T14:50:57.528Z,11.4
2019-02-21T14:52:04.730Z,11.5
2019-02-21T14:53:11.933Z,11.4
2019-02-21T14:54:18.865Z,11.4
2019-02-21T14:55:26.069Z,11.3
2019-02-21T14:56:33.271Z,11.3
2019-02-21T14:57:41.765Z,11.3
2019-02-21T14:58:48.964Z,11.3
2019-02-21T14:59:56.169Z,11.2
2019-02-21T15:01:03.097Z,11.2
2019-02-21T15:02:10.318Z,11.2
2019-02-21T15:03:22.731Z,11.2
2019-02-21T15:04:29.935Z,11.2
2019-02-21T15:05:37.138Z,11.2
2019-02-21T15:06:44.348Z,11.2
2019-02-21T15:07:51.549Z,11.1
2019-02-21T15:08:58.755Z,11.2
2019-02-21T15:10:05.951Z,11.2
2019-02-21T15:11:13.172Z,11.2
2019-02-21T15:12:20.379Z,11.2
2019-02-21T15:13:27.404Z,11.3
2019-02-21T15:14:34.604Z,11.3
2019-02-21T15:15:41.814Z,11.4
2019-02-21T15:16:49.015Z,11.4
2019-02-21T15:18:10.391Z,11.4
2019-02-21T15:19:18.266Z,11.3
2019-02-21T15:20:37.317Z,11.4